sensor_id;sensor_type;location;lat;lon;timestamp;P1;durP1;ratioP1;P2;durP2;ratioP2
27899;SDS011;15243;50.726;7.080;2023-05-23T02:24:51;26.50;;;18.75;;
27899;SDS011;15243;50.726;7.080;2023-05-23T02:27:18;25.08;;;17.63;;
27899;SDS011;15243;50.726;7.080;2023-05-23T02:29:45;25.05;;;17.20;;
27899;SDS011;15243;50.726;7.080;2023-05-23T02:32:12;25.08;;;17.15;;
27899;SDS011;15243;50.726;7.080;2023-05-23T02:34:39;24.83;;;16.50;;
27899;SDS011;15243;50.726;7.080;2023-05-23T02:37:06;20.77;;;13.45;;
27899;SDS011;15243;50.726;7.080;2023-05-23T02:39:34;17.98;;;10.80;;
27899;SDS011;15243;50.726;7.080;2023-05-23T02:42:02;16.30;;;10.27;;
27899;SDS011;15243;50.726;7.080;2023-05-23T02:44:30;14.85;;;8.60;;
27899;SDS011;15243;50.726;7.080;2023-05-23T02:46:57;11.00;;;7.00;;
27899;SDS011;15243;50.726;7.080;2023-05-23T02:49:24;10.18;;;6.90;;
27899;SDS011;15243;50.726;7.080;2023-05-23T02:51:51;9.23;;;6.13;;
27899;SDS011;15243;50.726;7.080;2023-05-23T02:54:18;8.45;;;6.35;;
27899;SDS011;15243;50.726;7.080;2023-05-23T02:56:45;7.95;;;5.15;;
27899;SDS011;15243;50.726;7.080;2023-05-23T02:59:12;6.53;;;5.07;;
27899;SDS011;15243;50.726;7.080;2023-05-23T03:01:39;5.85;;;4.93;;
27899;SDS011;15243;50.726;7.080;2023-05-23T03:04:06;8.98;;;5.25;;
27899;SDS011;15243;50.726;7.080;2023-05-23T03:06:33;8.40;;;4.97;;
27899;SDS011;15243;50.726;7.080;2023-05-23T03:09:02;9.23;;;4.95;;
27899;SDS011;15243;50.726;7.080;2023-05-23T03:11:29;6.00;;;4.88;;
27899;SDS011;15243;50.726;7.080;2023-05-23T03:13:56;7.63;;;5.18;;
27899;SDS011;15243;50.726;7.080;2023-05-23T03:16:23;7.43;;;4.85;;
27899;SDS011;15243;50.726;7.080;2023-05-23T03:18:50;7.53;;;4.97;;
27899;SDS011;15243;50.726;7.080;2023-05-23T03:21:17;6.95;;;5.03;;
27899;SDS011;15243;50.726;7.080;2023-05-23T03:23:44;7.18;;;4.53;;
27899;SDS011;15243;50.726;7.080;2023-05-23T03:26:11;10.48;;;5.40;;
27899;SDS011;15243;50.726;7.080;2023-05-23T03:28:40;7.30;;;5.25;;
27899;SDS011;15243;50.726;7.080;2023-05-23T03:31:08;6.95;;;5.20;;
27899;SDS011;15243;50.726;7.080;2023-05-23T03:33:41;8.45;;;5.35;;
27899;SDS011;15243;50.726;7.080;2023-05-23T03:36:08;8.48;;;5.40;;
27899;SDS011;15243;50.726;7.080;2023-05-23T03:38:35;8.48;;;5.65;;
27899;SDS011;15243;50.726;7.080;2023-05-23T03:41:05;6.35;;;5.32;;
27899;SDS011;15243;50.726;7.080;2023-05-23T03:43:32;8.55;;;6.40;;
27899;SDS011;15243;50.726;7.080;2023-05-23T03:45:59;7.78;;;6.07;;
27899;SDS011;15243;50.726;7.080;2023-05-23T03:48:26;10.10;;;7.30;;
27899;SDS011;15243;50.726;7.080;2023-05-23T03:50:55;12.45;;;7.95;;
27899;SDS011;15243;50.726;7.080;2023-05-23T03:53:22;12.18;;;8.10;;
27899;SDS011;15243;50.726;7.080;2023-05-23T03:55:50;11.70;;;8.65;;
27899;SDS011;15243;50.726;7.080;2023-05-23T03:58:19;12.02;;;8.90;;
27899;SDS011;15243;50.726;7.080;2023-05-23T04:00:46;13.05;;;9.48;;
27899;SDS011;15243;50.726;7.080;2023-05-23T04:03:13;15.00;;;9.98;;
27899;SDS011;15243;50.726;7.080;2023-05-23T04:05:43;12.77;;;9.93;;
27899;SDS011;15243;50.726;7.080;2023-05-23T04:08:10;14.35;;;10.77;;
27899;SDS011;15243;50.726;7.080;2023-05-23T04:10:37;16.15;;;11.15;;
27899;SDS011;15243;50.726;7.080;2023-05-23T04:13:04;14.27;;;11.43;;
27899;SDS011;15243;50.726;7.080;2023-05-23T04:15:32;16.30;;;11.40;;
27899;SDS011;15243;50.726;7.080;2023-05-23T04:17:59;19.13;;;12.32;;
27899;SDS011;15243;50.726;7.080;2023-05-23T04:20:27;18.55;;;12.65;;
27899;SDS011;15243;50.726;7.080;2023-05-23T04:22:54;16.92;;;12.32;;
27899;SDS011;15243;50.726;7.080;2023-05-23T04:25:21;18.77;;;12.48;;
27899;SDS011;15243;50.726;7.080;2023-05-23T04:27:49;16.95;;;12.70;;
27899;SDS011;15243;50.726;7.080;2023-05-23T04:30:16;20.35;;;12.68;;
27899;SDS011;15243;50.726;7.080;2023-05-23T04:32:43;18.50;;;12.93;;
27899;SDS011;15243;50.726;7.080;2023-05-23T04:35:11;19.92;;;12.88;;
27899;SDS011;15243;50.726;7.080;2023-05-23T04:37:39;16.70;;;13.32;;
27899;SDS011;15243;50.726;7.080;2023-05-23T04:40:08;18.60;;;13.15;;
27899;SDS011;15243;50.726;7.080;2023-05-23T04:42:35;18.58;;;13.98;;
27899;SDS011;15243;50.726;7.080;2023-05-23T04:45:02;19.25;;;12.93;;
27899;SDS011;15243;50.726;7.080;2023-05-23T04:47:29;25.08;;;12.02;;
27899;SDS011;15243;50.726;7.080;2023-05-23T04:50:02;21.08;;;13.15;;
27899;SDS011;15243;50.726;7.080;2023-05-23T04:52:29;18.70;;;12.25;;
27899;SDS011;15243;50.726;7.080;2023-05-23T04:54:59;17.05;;;12.70;;
27899;SDS011;15243;50.726;7.080;2023-05-23T04:57:26;18.63;;;12.48;;
27899;SDS011;15243;50.726;7.080;2023-05-23T04:59:55;19.75;;;13.48;;
27899;SDS011;15243;50.726;7.080;2023-05-23T05:02:22;19.17;;;11.77;;
27899;SDS011;15243;50.726;7.080;2023-05-23T05:04:49;15.35;;;12.27;;
27899;SDS011;15243;50.726;7.080;2023-05-23T05:07:16;16.38;;;12.38;;
27899;SDS011;15243;50.726;7.080;2023-05-23T05:09:44;19.88;;;11.77;;
27899;SDS011;15243;50.726;7.080;2023-05-23T05:12:11;19.02;;;12.25;;
27899;SDS011;15243;50.726;7.080;2023-05-23T05:14:38;19.88;;;12.82;;
27899;SDS011;15243;50.726;7.080;2023-05-23T05:17:05;19.50;;;12.85;;
27899;SDS011;15243;50.726;7.080;2023-05-23T05:19:32;20.05;;;13.00;;
27899;SDS011;15243;50.726;7.080;2023-05-23T05:21:59;23.48;;;13.77;;
27899;SDS011;15243;50.726;7.080;2023-05-23T05:24:26;23.35;;;14.13;;
27899;SDS011;15243;50.726;7.080;2023-05-23T05:26:54;20.83;;;13.93;;
27899;SDS011;15243;50.726;7.080;2023-05-23T05:29:22;23.40;;;15.38;;
27899;SDS011;15243;50.726;7.080;2023-05-23T05:31:49;21.02;;;13.57;;
27899;SDS011;15243;50.726;7.080;2023-05-23T05:34:17;23.38;;;14.13;;
27899;SDS011;15243;50.726;7.080;2023-05-23T05:36:44;19.77;;;13.50;;
27899;SDS011;15243;50.726;7.080;2023-05-23T05:39:13;24.00;;;13.52;;
27899;SDS011;15243;50.726;7.080;2023-05-23T05:41:41;21.75;;;13.63;;
27899;SDS011;15243;50.726;7.080;2023-05-23T05:44:11;26.38;;;12.95;;
27899;SDS011;15243;50.726;7.080;2023-05-23T05:46:39;20.33;;;12.10;;
27899;SDS011;15243;50.726;7.080;2023-05-23T05:49:06;19.90;;;12.57;;
27899;SDS011;15243;50.726;7.080;2023-05-23T05:51:35;19.08;;;13.02;;
27899;SDS011;15243;50.726;7.080;2023-05-23T05:54:02;23.52;;;12.88;;
27899;SDS011;15243;50.726;7.080;2023-05-23T05:56:29;21.33;;;12.90;;
27899;SDS011;15243;50.726;7.080;2023-05-23T05:58:58;21.63;;;13.20;;
27899;SDS011;15243;50.726;7.080;2023-05-23T06:01:25;20.63;;;12.93;;
27899;SDS011;15243;50.726;7.080;2023-05-23T06:03:52;26.27;;;14.70;;
27899;SDS011;15243;50.726;7.080;2023-05-23T06:06:19;20.17;;;13.35;;
27899;SDS011;15243;50.726;7.080;2023-05-23T06:08:47;22.00;;;14.00;;
27899;SDS011;15243;50.726;7.080;2023-05-23T06:11:14;16.92;;;12.95;;
27899;SDS011;15243;50.726;7.080;2023-05-23T06:13:41;19.75;;;14.02;;
27899;SDS011;15243;50.726;7.080;2023-05-23T06:16:08;26.67;;;14.35;;
27899;SDS011;15243;50.726;7.080;2023-05-23T06:18:35;25.13;;;14.52;;
27899;SDS011;15243;50.726;7.080;2023-05-23T06:21:02;21.30;;;13.98;;
27899;SDS011;15243;50.726;7.080;2023-05-23T06:23:30;24.52;;;16.00;;
27899;SDS011;15243;50.726;7.080;2023-05-23T06:25:57;23.80;;;14.80;;
27899;SDS011;15243;50.726;7.080;2023-05-23T06:28:25;27.33;;;15.30;;
27899;SDS011;15243;50.726;7.080;2023-05-23T06:30:52;20.75;;;14.23;;
27899;SDS011;15243;50.726;7.080;2023-05-23T06:33:19;24.42;;;16.38;;
27899;SDS011;15243;50.726;7.080;2023-05-23T06:35:46;20.23;;;16.33;;
27899;SDS011;15243;50.726;7.080;2023-05-23T06:38:13;26.60;;;16.55;;
27899;SDS011;15243;50.726;7.080;2023-05-23T06:40:43;23.92;;;17.20;;
27899;SDS011;15243;50.726;7.080;2023-05-23T06:43:10;30.52;;;18.58;;
27899;SDS011;15243;50.726;7.080;2023-05-23T06:45:37;29.27;;;19.02;;
27899;SDS011;15243;50.726;7.080;2023-05-23T06:48:04;27.08;;;18.00;;
27899;SDS011;15243;50.726;7.080;2023-05-23T06:50:31;28.08;;;19.60;;
27899;SDS011;15243;50.726;7.080;2023-05-23T06:52:58;28.50;;;19.33;;
27899;SDS011;15243;50.726;7.080;2023-05-23T06:55:25;28.98;;;20.17;;
27899;SDS011;15243;50.726;7.080;2023-05-23T06:57:53;28.58;;;18.00;;
27899;SDS011;15243;50.726;7.080;2023-05-23T07:00:20;26.00;;;17.67;;
27899;SDS011;15243;50.726;7.080;2023-05-23T07:02:47;24.70;;;18.50;;
27899;SDS011;15243;50.726;7.080;2023-05-23T07:05:15;28.15;;;17.20;;
27899;SDS011;15243;50.726;7.080;2023-05-23T07:07:43;28.98;;;17.98;;
27899;SDS011;15243;50.726;7.080;2023-05-23T07:10:10;25.85;;;17.85;;
27899;SDS011;15243;50.726;7.080;2023-05-23T07:12:37;28.25;;;16.88;;
27899;SDS011;15243;50.726;7.080;2023-05-23T07:15:04;29.98;;;18.30;;
27899;SDS011;15243;50.726;7.080;2023-05-23T07:17:32;24.80;;;16.38;;
27899;SDS011;15243;50.726;7.080;2023-05-23T07:20:00;35.50;;;16.98;;
27899;SDS011;15243;50.726;7.080;2023-05-23T07:22:27;27.45;;;16.42;;
27899;SDS011;15243;50.726;7.080;2023-05-23T07:24:54;23.17;;;16.33;;
27899;SDS011;15243;50.726;7.080;2023-05-23T07:27:21;26.60;;;16.20;;
27899;SDS011;15243;50.726;7.080;2023-05-23T07:29:48;25.48;;;16.42;;
27899;SDS011;15243;50.726;7.080;2023-05-23T07:32:16;24.52;;;15.52;;
27899;SDS011;15243;50.726;7.080;2023-05-23T07:34:48;25.73;;;15.80;;
27899;SDS011;15243;50.726;7.080;2023-05-23T07:37:14;23.30;;;15.63;;
27899;SDS011;15243;50.726;7.080;2023-05-23T07:39:42;24.92;;;16.85;;
27899;SDS011;15243;50.726;7.080;2023-05-23T07:42:09;23.13;;;15.75;;
27899;SDS011;15243;50.726;7.080;2023-05-23T07:44:37;26.45;;;16.23;;
27899;SDS011;15243;50.726;7.080;2023-05-23T07:47:03;28.95;;;15.27;;
27899;SDS011;15243;50.726;7.080;2023-05-23T07:49:32;17.05;;;13.68;;
27899;SDS011;15243;50.726;7.080;2023-05-23T07:51:59;21.13;;;13.75;;
27899;SDS011;15243;50.726;7.080;2023-05-23T07:54:29;16.77;;;11.52;;
27899;SDS011;15243;50.726;7.080;2023-05-23T07:56:59;14.57;;;10.95;;
27899;SDS011;15243;50.726;7.080;2023-05-23T07:59:27;13.32;;;9.15;;
27899;SDS011;15243;50.726;7.080;2023-05-23T08:01:55;15.25;;;9.25;;
27899;SDS011;15243;50.726;7.080;2023-05-23T08:04:22;19.45;;;8.73;;
27899;SDS011;15243;50.726;7.080;2023-05-23T08:06:49;13.98;;;8.45;;
27899;SDS011;15243;50.726;7.080;2023-05-23T08:09:30;11.98;;;8.48;;
27899;SDS011;15243;50.726;7.080;2023-05-23T08:11:57;19.50;;;8.52;;
27899;SDS011;15243;50.726;7.080;2023-05-23T08:14:26;20.33;;;8.73;;
27899;SDS011;15243;50.726;7.080;2023-05-23T08:17:13;17.52;;;8.65;;
27899;SDS011;15243;50.726;7.080;2023-05-23T08:19:40;17.77;;;7.47;;
27899;SDS011;15243;50.726;7.080;2023-05-23T08:22:07;12.88;;;8.60;;
27899;SDS011;15243;50.726;7.080;2023-05-23T08:24:34;13.60;;;7.90;;
27899;SDS011;15243;50.726;7.080;2023-05-23T08:27:01;12.65;;;8.10;;
27899;SDS011;15243;50.726;7.080;2023-05-23T08:29:28;14.68;;;7.82;;
27899;SDS011;15243;50.726;7.080;2023-05-23T08:31:55;12.90;;;7.68;;
27899;SDS011;15243;50.726;7.080;2023-05-23T08:34:24;14.02;;;7.95;;
27899;SDS011;15243;50.726;7.080;2023-05-23T08:36:52;14.18;;;8.00;;
27899;SDS011;15243;50.726;7.080;2023-05-23T08:39:19;12.45;;;8.38;;
27899;SDS011;15243;50.726;7.080;2023-05-23T08:41:46;14.52;;;8.25;;
27899;SDS011;15243;50.726;7.080;2023-05-23T08:44:15;12.45;;;7.97;;
27899;SDS011;15243;50.726;7.080;2023-05-23T08:46:45;14.50;;;8.00;;
27899;SDS011;15243;50.726;7.080;2023-05-23T08:49:15;18.58;;;8.90;;
27899;SDS011;15243;50.726;7.080;2023-05-23T08:51:43;17.15;;;7.65;;
27899;SDS011;15243;50.726;7.080;2023-05-23T08:54:12;14.02;;;8.02;;
27899;SDS011;15243;50.726;7.080;2023-05-23T08:56:39;14.25;;;8.40;;
27899;SDS011;15243;50.726;7.080;2023-05-23T08:59:07;11.70;;;7.47;;
27899;SDS011;15243;50.726;7.080;2023-05-23T09:01:36;18.50;;;7.85;;
27899;SDS011;15243;50.726;7.080;2023-05-23T09:04:05;14.05;;;8.10;;
27899;SDS011;15243;50.726;7.080;2023-05-23T09:06:33;14.63;;;7.70;;
27899;SDS011;15243;50.726;7.080;2023-05-23T09:09:00;15.63;;;8.57;;
27899;SDS011;15243;50.726;7.080;2023-05-23T09:11:29;14.25;;;7.93;;
27899;SDS011;15243;50.726;7.080;2023-05-23T09:14:01;15.05;;;8.20;;
27899;SDS011;15243;50.726;7.080;2023-05-23T09:16:33;19.92;;;9.07;;
27899;SDS011;15243;50.726;7.080;2023-05-23T09:19:10;26.63;;;11.15;;
27899;SDS011;15243;50.726;7.080;2023-05-23T09:21:44;19.67;;;11.98;;
27899;SDS011;15243;50.726;7.080;2023-05-23T09:24:12;22.15;;;14.23;;
27899;SDS011;15243;50.726;7.080;2023-05-23T09:26:39;27.77;;;15.05;;
27899;SDS011;15243;50.726;7.080;2023-05-23T09:29:05;25.20;;;15.82;;
27899;SDS011;15243;50.726;7.080;2023-05-23T09:31:33;24.30;;;15.48;;
27899;SDS011;15243;50.726;7.080;2023-05-23T09:34:02;26.35;;;13.77;;
27899;SDS011;15243;50.726;7.080;2023-05-23T09:36:30;24.45;;;12.68;;
27899;SDS011;15243;50.726;7.080;2023-05-23T09:39:01;24.67;;;12.45;;
27899;SDS011;15243;50.726;7.080;2023-05-23T09:41:33;29.33;;;12.75;;
27899;SDS011;15243;50.726;7.080;2023-05-23T09:44:04;21.17;;;12.88;;
27899;SDS011;15243;50.726;7.080;2023-05-23T09:46:36;22.95;;;11.80;;
27899;SDS011;15243;50.726;7.080;2023-05-23T09:49:14;21.02;;;11.10;;
27899;SDS011;15243;50.726;7.080;2023-05-23T09:51:57;19.65;;;10.25;;
27899;SDS011;15243;50.726;7.080;2023-05-23T09:54:27;27.80;;;11.13;;
27899;SDS011;15243;50.726;7.080;2023-05-23T09:56:54;26.60;;;11.68;;
27899;SDS011;15243;50.726;7.080;2023-05-23T09:59:27;23.98;;;10.75;;
27899;SDS011;15243;50.726;7.080;2023-05-23T10:01:59;25.30;;;11.00;;
27899;SDS011;15243;50.726;7.080;2023-05-23T10:04:29;24.38;;;13.23;;
27899;SDS011;15243;50.726;7.080;2023-05-23T10:07:00;27.20;;;16.08;;
27899;SDS011;15243;50.726;7.080;2023-05-23T10:09:35;31.45;;;18.35;;
27899;SDS011;15243;50.726;7.080;2023-05-23T10:12:33;28.55;;;16.13;;
27899;SDS011;15243;50.726;7.080;2023-05-23T10:15:13;29.35;;;13.57;;
27899;SDS011;15243;50.726;7.080;2023-05-23T10:20:37;22.60;;;11.25;;
27899;SDS011;15243;50.726;7.080;2023-05-23T10:23:07;20.08;;;10.18;;
27899;SDS011;15243;50.726;7.080;2023-05-23T10:25:35;22.23;;;10.18;;
27899;SDS011;15243;50.726;7.080;2023-05-23T10:28:03;21.67;;;10.60;;
27899;SDS011;15243;50.726;7.080;2023-05-23T10:30:30;22.38;;;10.80;;
27899;SDS011;15243;50.726;7.080;2023-05-23T10:32:57;24.42;;;11.20;;
27899;SDS011;15243;50.726;7.080;2023-05-23T10:43:51;22.67;;;10.55;;
27899;SDS011;15243;50.726;7.080;2023-05-23T10:46:40;21.65;;;10.48;;
27899;SDS011;15243;50.726;7.080;2023-05-23T10:49:16;18.88;;;9.45;;
27899;SDS011;15243;50.726;7.080;2023-05-23T10:51:43;21.45;;;9.68;;
27899;SDS011;15243;50.726;7.080;2023-05-23T10:54:18;18.17;;;9.45;;
27899;SDS011;15243;50.726;7.080;2023-05-23T10:56:47;19.98;;;10.05;;
27899;SDS011;15243;50.726;7.080;2023-05-23T10:59:31;27.10;;;10.73;;
27899;SDS011;15243;50.726;7.080;2023-05-23T11:01:59;26.30;;;11.13;;
27899;SDS011;15243;50.726;7.080;2023-05-23T11:04:27;26.60;;;10.18;;
27899;SDS011;15243;50.726;7.080;2023-05-23T11:06:55;22.70;;;10.30;;
27899;SDS011;15243;50.726;7.080;2023-05-23T11:09:22;23.15;;;10.48;;
27899;SDS011;15243;50.726;7.080;2023-05-23T11:14:21;18.80;;;9.45;;
27899;SDS011;15243;50.726;7.080;2023-05-23T11:17:30;16.48;;;10.02;;
27899;SDS011;15243;50.726;7.080;2023-05-23T11:20:00;16.65;;;9.70;;
27899;SDS011;15243;50.726;7.080;2023-05-23T11:25:08;19.25;;;8.90;;
27899;SDS011;15243;50.726;7.080;2023-05-23T11:27:38;21.88;;;8.85;;
27899;SDS011;15243;50.726;7.080;2023-05-23T11:32:39;26.52;;;8.20;;
27899;SDS011;15243;50.726;7.080;2023-05-23T11:35:10;14.63;;;8.30;;
27899;SDS011;15243;50.726;7.080;2023-05-23T11:37:37;20.10;;;8.27;;
27899;SDS011;15243;50.726;7.080;2023-05-23T11:42:52;15.50;;;8.15;;
27899;SDS011;15243;50.726;7.080;2023-05-23T11:45:24;15.73;;;7.57;;
27899;SDS011;15243;50.726;7.080;2023-05-23T11:47:52;16.70;;;7.75;;
27899;SDS011;15243;50.726;7.080;2023-05-23T11:50:20;24.70;;;7.80;;
27899;SDS011;15243;50.726;7.080;2023-05-23T11:52:47;20.05;;;8.18;;
27899;SDS011;15243;50.726;7.080;2023-05-23T11:55:19;18.23;;;8.52;;
27899;SDS011;15243;50.726;7.080;2023-05-23T11:57:47;15.07;;;7.63;;
27899;SDS011;15243;50.726;7.080;2023-05-23T12:00:16;15.63;;;8.45;;
27899;SDS011;15243;50.726;7.080;2023-05-23T12:02:44;18.60;;;7.60;;
27899;SDS011;15243;50.726;7.080;2023-05-23T12:05:15;19.67;;;7.93;;
27899;SDS011;15243;50.726;7.080;2023-05-23T12:07:43;20.05;;;9.00;;
27899;SDS011;15243;50.726;7.080;2023-05-23T12:10:16;20.83;;;10.20;;
27899;SDS011;15243;50.726;7.080;2023-05-23T12:12:49;17.90;;;9.10;;
27899;SDS011;15243;50.726;7.080;2023-05-23T12:15:17;19.40;;;9.32;;
27899;SDS011;15243;50.726;7.080;2023-05-23T12:17:44;17.08;;;8.75;;
27899;SDS011;15243;50.726;7.080;2023-05-23T12:20:12;18.23;;;8.48;;
27899;SDS011;15243;50.726;7.080;2023-05-23T12:22:40;15.20;;;7.57;;
27899;SDS011;15243;50.726;7.080;2023-05-23T12:25:08;14.48;;;8.13;;
27899;SDS011;15243;50.726;7.080;2023-05-23T12:27:39;19.45;;;9.25;;
27899;SDS011;15243;50.726;7.080;2023-05-23T12:30:12;23.08;;;10.43;;
27899;SDS011;15243;50.726;7.080;2023-05-23T12:32:40;20.00;;;12.30;;
27899;SDS011;15243;50.726;7.080;2023-05-23T12:35:09;25.65;;;11.85;;
27899;SDS011;15243;50.726;7.080;2023-05-23T12:37:44;26.65;;;15.32;;
27899;SDS011;15243;50.726;7.080;2023-05-23T12:40:12;27.45;;;14.90;;
27899;SDS011;15243;50.726;7.080;2023-05-23T12:42:44;19.92;;;13.43;;
27899;SDS011;15243;50.726;7.080;2023-05-23T12:45:12;23.92;;;13.65;;
27899;SDS011;15243;50.726;7.080;2023-05-23T12:47:40;17.88;;;11.75;;
27899;SDS011;15243;50.726;7.080;2023-05-23T12:50:08;20.55;;;12.63;;
27899;SDS011;15243;50.726;7.080;2023-05-23T12:52:37;20.38;;;13.13;;
27899;SDS011;15243;50.726;7.080;2023-05-23T12:55:06;21.38;;;13.55;;
27899;SDS011;15243;50.726;7.080;2023-05-23T12:57:34;20.80;;;14.40;;
27899;SDS011;15243;50.726;7.080;2023-05-23T13:00:01;23.05;;;14.40;;
27899;SDS011;15243;50.726;7.080;2023-05-23T13:02:30;20.05;;;13.27;;
27899;SDS011;15243;50.726;7.080;2023-05-23T13:04:56;22.65;;;13.15;;
27899;SDS011;15243;50.726;7.080;2023-05-23T13:07:23;23.10;;;13.70;;
27899;SDS011;15243;50.726;7.080;2023-05-23T13:09:51;23.27;;;13.40;;
27899;SDS011;15243;50.726;7.080;2023-05-23T13:12:17;22.85;;;13.00;;
27899;SDS011;15243;50.726;7.080;2023-05-23T13:14:45;20.77;;;13.00;;
27899;SDS011;15243;50.726;7.080;2023-05-23T13:17:12;26.48;;;14.65;;
27899;SDS011;15243;50.726;7.080;2023-05-23T13:19:39;22.20;;;13.43;;
27899;SDS011;15243;50.726;7.080;2023-05-23T13:22:06;22.52;;;12.52;;
27899;SDS011;15243;50.726;7.080;2023-05-23T13:24:36;20.63;;;13.50;;
27899;SDS011;15243;50.726;7.080;2023-05-23T13:27:04;23.73;;;12.60;;
27899;SDS011;15243;50.726;7.080;2023-05-23T13:29:32;25.58;;;14.13;;
27899;SDS011;15243;50.726;7.080;2023-05-23T13:31:59;22.30;;;12.70;;
27899;SDS011;15243;50.726;7.080;2023-05-23T13:34:26;17.63;;;10.15;;
27899;SDS011;15243;50.726;7.080;2023-05-23T13:36:53;18.52;;;9.82;;
27899;SDS011;15243;50.726;7.080;2023-05-23T13:39:21;19.38;;;10.02;;
27899;SDS011;15243;50.726;7.080;2023-05-23T13:41:51;17.83;;;9.77;;
27899;SDS011;15243;50.726;7.080;2023-05-23T13:44:18;18.52;;;10.90;;
27899;SDS011;15243;50.726;7.080;2023-05-23T13:46:44;20.02;;;13.15;;
27899;SDS011;15243;50.726;7.080;2023-05-23T13:49:15;24.40;;;14.32;;
27899;SDS011;15243;50.726;7.080;2023-05-23T13:51:42;27.52;;;15.73;;
27899;SDS011;15243;50.726;7.080;2023-05-23T13:54:09;20.75;;;12.75;;
27899;SDS011;15243;50.726;7.080;2023-05-23T13:56:37;20.95;;;12.93;;
27899;SDS011;15243;50.726;7.080;2023-05-23T13:59:05;21.50;;;12.45;;
27899;SDS011;15243;50.726;7.080;2023-05-23T14:01:32;17.38;;;9.48;;
27899;SDS011;15243;50.726;7.080;2023-05-23T14:03:59;16.95;;;9.95;;
27899;SDS011;15243;50.726;7.080;2023-05-23T14:06:26;20.40;;;11.60;;
27899;SDS011;15243;50.726;7.080;2023-05-23T14:08:53;21.48;;;12.63;;
27899;SDS011;15243;50.726;7.080;2023-05-23T14:11:21;20.33;;;12.57;;
27899;SDS011;15243;50.726;7.080;2023-05-23T14:13:48;17.80;;;11.57;;
27899;SDS011;15243;50.726;7.080;2023-05-23T14:16:15;20.00;;;11.65;;
27899;SDS011;15243;50.726;7.080;2023-05-23T14:18:42;16.88;;;10.57;;
27899;SDS011;15243;50.726;7.080;2023-05-23T14:21:10;15.70;;;9.38;;
27899;SDS011;15243;50.726;7.080;2023-05-23T14:23:37;13.18;;;8.48;;
27899;SDS011;15243;50.726;7.080;2023-05-23T14:26:04;10.10;;;6.15;;
27899;SDS011;15243;50.726;7.080;2023-05-23T14:28:31;9.85;;;5.35;;
27899;SDS011;15243;50.726;7.080;2023-05-23T14:30:59;13.55;;;6.25;;
27899;SDS011;15243;50.726;7.080;2023-05-23T14:33:26;12.93;;;6.15;;
27899;SDS011;15243;50.726;7.080;2023-05-23T14:35:53;12.85;;;5.80;;
27899;SDS011;15243;50.726;7.080;2023-05-23T14:38:20;15.05;;;6.25;;
27899;SDS011;15243;50.726;7.080;2023-05-23T14:40:47;15.35;;;6.65;;
27899;SDS011;15243;50.726;7.080;2023-05-23T14:43:15;13.18;;;5.85;;
27899;SDS011;15243;50.726;7.080;2023-05-23T14:45:42;18.67;;;6.10;;
27899;SDS011;15243;50.726;7.080;2023-05-23T14:48:09;10.27;;;5.25;;
27899;SDS011;15243;50.726;7.080;2023-05-23T14:50:37;9.50;;;4.25;;
27899;SDS011;15243;50.726;7.080;2023-05-23T14:53:04;18.33;;;5.47;;
27899;SDS011;15243;50.726;7.080;2023-05-23T14:55:31;12.90;;;5.88;;
27899;SDS011;15243;50.726;7.080;2023-05-23T14:57:59;13.23;;;5.20;;
27899;SDS011;15243;50.726;7.080;2023-05-23T15:00:26;19.83;;;5.82;;
27899;SDS011;15243;50.726;7.080;2023-05-23T15:02:53;18.40;;;6.13;;
27899;SDS011;15243;50.726;7.080;2023-05-23T15:05:20;19.40;;;7.45;;
27899;SDS011;15243;50.726;7.080;2023-05-23T15:07:47;14.52;;;7.28;;
27899;SDS011;15243;50.726;7.080;2023-05-23T15:10:15;16.65;;;9.45;;
27899;SDS011;15243;50.726;7.080;2023-05-23T15:12:42;17.38;;;9.55;;
27899;SDS011;15243;50.726;7.080;2023-05-23T15:15:09;16.75;;;10.88;;
27899;SDS011;15243;50.726;7.080;2023-05-23T15:17:37;20.17;;;12.32;;
27899;SDS011;15243;50.726;7.080;2023-05-23T15:20:04;22.13;;;13.50;;
27899;SDS011;15243;50.726;7.080;2023-05-23T15:22:33;18.55;;;12.00;;
27899;SDS011;15243;50.726;7.080;2023-05-23T15:25:05;22.50;;;12.80;;
27899;SDS011;15243;50.726;7.080;2023-05-23T15:27:33;19.52;;;11.65;;
27899;SDS011;15243;50.726;7.080;2023-05-23T15:30:00;17.40;;;11.32;;
27899;SDS011;15243;50.726;7.080;2023-05-23T15:32:27;22.38;;;12.73;;
27899;SDS011;15243;50.726;7.080;2023-05-23T15:34:55;19.40;;;11.38;;
27899;SDS011;15243;50.726;7.080;2023-05-23T15:37:22;20.73;;;11.48;;
27899;SDS011;15243;50.726;7.080;2023-05-23T15:39:49;21.98;;;10.15;;
27899;SDS011;15243;50.726;7.080;2023-05-23T15:42:16;16.85;;;10.65;;
27899;SDS011;15243;50.726;7.080;2023-05-23T15:44:43;24.52;;;12.32;;
27899;SDS011;15243;50.726;7.080;2023-05-23T15:47:11;21.60;;;11.52;;
27899;SDS011;15243;50.726;7.080;2023-05-23T15:49:39;22.60;;;10.98;;
27899;SDS011;15243;50.726;7.080;2023-05-23T15:52:06;18.65;;;10.48;;
27899;SDS011;15243;50.726;7.080;2023-05-23T15:54:33;16.95;;;10.68;;
27899;SDS011;15243;50.726;7.080;2023-05-23T15:57:00;20.25;;;11.23;;
27899;SDS011;15243;50.726;7.080;2023-05-23T15:59:27;22.60;;;11.73;;
27899;SDS011;15243;50.726;7.080;2023-05-23T16:01:54;18.33;;;11.45;;
27899;SDS011;15243;50.726;7.080;2023-05-23T16:04:21;19.08;;;11.93;;
27899;SDS011;15243;50.726;7.080;2023-05-23T16:06:49;20.23;;;11.70;;
27899;SDS011;15243;50.726;7.080;2023-05-23T16:09:16;19.85;;;11.68;;
27899;SDS011;15243;50.726;7.080;2023-05-23T16:11:43;24.55;;;12.77;;
27899;SDS011;15243;50.726;7.080;2023-05-23T16:14:10;19.88;;;13.48;;
27899;SDS011;15243;50.726;7.080;2023-05-23T16:16:38;20.65;;;13.50;;
27899;SDS011;15243;50.726;7.080;2023-05-23T16:19:08;27.17;;;13.95;;
27899;SDS011;15243;50.726;7.080;2023-05-23T16:21:35;19.20;;;13.20;;
27899;SDS011;15243;50.726;7.080;2023-05-23T16:24:02;25.60;;;12.63;;
27899;SDS011;15243;50.726;7.080;2023-05-23T16:26:30;21.98;;;12.73;;
27899;SDS011;15243;50.726;7.080;2023-05-23T16:28:58;21.42;;;12.52;;
27899;SDS011;15243;50.726;7.080;2023-05-23T16:31:25;22.17;;;12.48;;
27899;SDS011;15243;50.726;7.080;2023-05-23T16:33:53;20.40;;;12.77;;
27899;SDS011;15243;50.726;7.080;2023-05-23T16:36:21;19.67;;;12.90;;
27899;SDS011;15243;50.726;7.080;2023-05-23T16:38:48;22.88;;;12.90;;
27899;SDS011;15243;50.726;7.080;2023-05-23T16:41:16;24.25;;;12.63;;
27899;SDS011;15243;50.726;7.080;2023-05-23T16:43:43;21.67;;;12.00;;
27899;SDS011;15243;50.726;7.080;2023-05-23T16:46:11;25.77;;;12.10;;
27899;SDS011;15243;50.726;7.080;2023-05-23T16:48:38;21.88;;;10.80;;
27899;SDS011;15243;50.726;7.080;2023-05-23T16:51:04;25.42;;;10.52;;
27899;SDS011;15243;50.726;7.080;2023-05-23T16:53:32;21.83;;;12.23;;
27899;SDS011;15243;50.726;7.080;2023-05-23T16:55:59;22.00;;;12.15;;
27899;SDS011;15243;50.726;7.080;2023-05-23T16:58:26;22.08;;;12.07;;
27899;SDS011;15243;50.726;7.080;2023-05-23T17:00:53;24.45;;;12.45;;
27899;SDS011;15243;50.726;7.080;2023-05-23T17:03:20;24.80;;;12.82;;
27899;SDS011;15243;50.726;7.080;2023-05-23T17:05:47;19.27;;;11.95;;
27899;SDS011;15243;50.726;7.080;2023-05-23T17:08:15;22.38;;;11.60;;
27899;SDS011;15243;50.726;7.080;2023-05-23T17:10:43;19.27;;;10.27;;
27899;SDS011;15243;50.726;7.080;2023-05-23T17:13:10;20.90;;;10.50;;
27899;SDS011;15243;50.726;7.080;2023-05-23T17:15:37;23.45;;;11.13;;
27899;SDS011;15243;50.726;7.080;2023-05-23T17:18:04;18.23;;;10.25;;